createdAt,value
2023-05-08T00:02:08.550Z,95143.13
2023-05-08T00:04:35.555Z,95144.97
2023-05-08T00:07:02.618Z,95138.47
2023-05-08T00:09:29.530Z,95143.22
2023-05-08T00:11:56.530Z,95122.59
2023-05-08T00:14:23.414Z,95141.72
2023-05-08T00:16:50.502Z,95135.50
2023-05-08T00:19:17.704Z,95140.06
2023-05-08T00:21:44.844Z,95144.91
2023-05-08T00:24:11.840Z,95143.84
2023-05-08T00:26:38.752Z,95148.66
2023-05-08T00:29:06.677Z,95157.38
2023-05-08T00:31:34.054Z,95155.41
2023-05-08T00:34:01.065Z,95154.56
2023-05-08T00:36:28.453Z,95153.97
2023-05-08T00:38:55.657Z,95156.34
2023-05-08T00:41:22.666Z,95149.09
2023-05-08T00:43:49.542Z,95157.16
2023-05-08T00:46:16.586Z,95162.22
2023-05-08T00:48:45.372Z,95158.19
2023-05-08T00:51:13.042Z,95161.97
2023-05-08T00:53:42.993Z,95167.00
2023-05-08T00:56:13.110Z,95161.38
2023-05-08T00:58:41.109Z,95166.78
2023-05-08T01:01:08.172Z,95157.03
2023-05-08T01:03:36.445Z,95165.13
2023-05-08T01:06:05.229Z,95171.59
2023-05-08T01:08:32.850Z,95166.66
2023-05-08T01:11:18.016Z,95162.06
2023-05-08T01:13:51.512Z,95171.41
2023-05-08T01:16:29.324Z,95170.84
2023-05-08T01:18:59.205Z,95172.66
2023-05-08T01:22:15.983Z,95180.03
2023-05-08T01:25:10.945Z,95179.66
2023-05-08T01:28:04.274Z,95158.09
2023-05-08T01:30:46.891Z,95169.03
2023-05-08T01:33:21.028Z,95173.81
2023-05-08T01:35:53.172Z,95164.38
2023-05-08T01:38:31.006Z,95160.69
2023-05-08T01:41:08.876Z,95166.84
2023-05-08T01:43:50.400Z,95169.53
2023-05-08T01:46:21.056Z,95165.28
2023-05-08T01:49:07.096Z,95156.16
2023-05-08T01:51:40.520Z,95156.50
2023-05-08T01:54:11.014Z,95157.44
2023-05-08T01:56:40.453Z,95155.00
2023-05-08T01:59:08.416Z,95158.16
2023-05-08T02:01:36.829Z,95156.81
2023-05-08T02:04:06.803Z,95149.78
2023-05-08T02:06:36.427Z,95141.81
2023-05-08T02:09:03.590Z,95146.53
2023-05-08T02:11:32.952Z,95164.34
2023-05-08T02:14:01.851Z,95165.13
2023-05-08T02:16:30.349Z,95154.31
2023-05-08T02:19:01.197Z,95165.88
2023-05-08T02:21:30.970Z,95169.25
2023-05-08T02:23:59.450Z,95163.44
2023-05-08T02:26:28.654Z,95157.25
2023-05-08T02:28:56.302Z,95165.84
2023-05-08T02:31:24.562Z,95158.34
2023-05-08T02:33:53.852Z,95149.59
2023-05-08T02:36:23.049Z,95144.69
2023-05-08T02:38:52.821Z,95156.41
2023-05-08T02:41:23.023Z,95148.88
2023-05-08T02:43:52.124Z,95164.16
2023-05-08T02:46:26.483Z,95169.31
2023-05-08T02:49:15.024Z,95169.31
2023-05-08T02:52:14.406Z,95175.53
2023-05-08T02:55:15.190Z,95171.31
2023-05-08T02:57:42.246Z,95175.13
2023-05-08T03:00:27.582Z,95173.59
2023-05-08T03:03:00.168Z,95175.31
2023-05-08T03:05:32.590Z,95170.06
2023-05-08T03:08:15.415Z,95173.06
2023-05-08T03:10:45.164Z,95167.13
2023-05-08T03:13:14.035Z,95157.75
2023-05-08T03:15:55.501Z,95167.38
2023-05-08T03:18:29.764Z,95170.72
2023-05-08T03:20:59.398Z,95181.88
2023-05-08T03:23:29.230Z,95175.97
2023-05-08T03:25:58.980Z,95181.69
2023-05-08T03:28:28.629Z,95184.03
2023-05-08T03:30:59.150Z,95182.38
2023-05-08T03:33:27.797Z,95184.34
2023-05-08T03:35:56.667Z,95190.59
2023-05-08T03:38:24.206Z,95186.41
2023-05-08T03:40:51.242Z,95185.69
2023-05-08T03:43:20.502Z,95184.75
2023-05-08T03:45:47.991Z,95178.53
2023-05-08T03:48:16.887Z,95172.94
2023-05-08T03:50:45.024Z,95190.53
2023-05-08T03:53:12.022Z,95176.94
2023-05-08T03:55:39.428Z,95192.88
2023-05-08T03:58:17.841Z,95192.28
2023-05-08T04:01:05.897Z,95192.03
2023-05-08T04:04:01.309Z,95191.53
2023-05-08T04:06:48.640Z,95187.59
2023-05-08T04:09:31.008Z,95196.59
2023-05-08T04:12:09.723Z,95198.97
2023-05-08T04:14:50.836Z,95199.38
2023-05-08T04:17:31.591Z,95204.22
2023-05-08T04:20:02.725Z,95207.22
2023-05-08T04:22:33.957Z,95208.44
2023-05-08T04:25:04.084Z,95218.84
2023-05-08T04:27:31.923Z,95217.31
2023-05-08T04:29:59.878Z,95200.22
2023-05-08T04:32:29.268Z,95203.53
2023-05-08T04:34:56.660Z,95201.56
2023-05-08T04:37:31.351Z,95195.88
2023-05-08T04:40:01.168Z,95203.78
2023-05-08T04:42:29.934Z,95198.75
2023-05-08T04:44:59.221Z,95180.22
2023-05-08T04:47:26.286Z,95201.28
2023-05-08T04:49:53.643Z,95197.03
2023-05-08T04:52:20.603Z,95195.13
2023-05-08T04:54:47.669Z,95191.41
2023-05-08T04:57:14.698Z,95189.78
2023-05-08T04:59:42.130Z,95193.84
2023-05-08T05:02:09.401Z,95194.13
2023-05-08T05:04:37.442Z,95189.78
2023-05-08T05:07:05.848Z,95190.34
2023-05-08T05:09:37.197Z,95173.69
2023-05-08T05:12:06.453Z,95144.63
2023-05-08T05:14:33.669Z,95180.91
2023-05-08T05:17:01.090Z,95183.31
2023-05-08T05:19:28.144Z,95179.56
2023-05-08T05:21:55.675Z,95184.97
2023-05-08T05:24:22.967Z,95180.91
2023-05-08T05:26:49.875Z,95181.50
2023-05-08T05:29:17.394Z,95174.78
2023-05-08T05:31:44.794Z,95168.88
2023-05-08T05:34:12.627Z,95176.94
2023-05-08T05:36:40.639Z,95176.41
2023-05-08T05:39:07.948Z,95184.47
2023-05-08T05:41:36.302Z,95181.22
2023-05-08T05:44:03.874Z,95179.06
2023-05-08T05:46:32.852Z,95181.69
2023-05-08T05:49:02.979Z,95178.47
2023-05-08T05:51:30.073Z,95183.03
2023-05-08T05:53:57.301Z,95174.06
2023-05-08T05:56:25.734Z,95172.06
2023-05-08T05:58:52.773Z,95173.88
2023-05-08T06:01:20.003Z,95166.28
2023-05-08T06:03:47.522Z,95170.81
2023-05-08T06:06:14.597Z,95162.81
2023-05-08T06:08:41.559Z,95163.72
2023-05-08T06:11:08.777Z,95159.31
2023-05-08T06:13:35.975Z,95158.56
2023-05-08T06:16:03.391Z,95157.81
2023-05-08T06:18:30.752Z,95138.03
2023-05-08T06:20:58.608Z,95150.06
2023-05-08T06:23:27.004Z,95155.56
2023-05-08T06:25:54.427Z,95160.16
2023-05-08T06:28:22.688Z,95152.28
2023-05-08T06:30:49.708Z,95152.59
2023-05-08T06:33:17.000Z,95160.34
2023-05-08T06:35:47.883Z,95163.78
2023-05-08T06:38:15.918Z,95163.81
2023-05-08T06:40:46.914Z,95156.13
2023-05-08T06:43:14.042Z,95158.59
2023-05-08T06:45:40.951Z,95163.53
2023-05-08T06:48:08.177Z,95154.53
2023-05-08T06:50:38.323Z,95153.81
2023-05-08T06:53:05.633Z,95149.88
2023-05-08T06:55:32.910Z,95153.81
2023-05-08T06:58:00.061Z,95155.75
2023-05-08T07:00:27.313Z,95151.56
2023-05-08T07:02:54.215Z,95156.56
2023-05-08T07:05:21.577Z,95169.06
2023-05-08T07:07:48.485Z,95128.25
2023-05-08T07:10:16.841Z,95159.97
2023-05-08T07:12:44.524Z,95163.00
2023-05-08T07:15:24.762Z,95163.13
2023-05-08T07:17:54.096Z,95161.53
2023-05-08T07:20:21.792Z,95162.22
2023-05-08T07:22:49.050Z,95161.19
2023-05-08T07:25:16.341Z,95153.03
2023-05-08T07:27:43.463Z,95150.22
2023-05-08T07:30:11.184Z,95151.25
2023-05-08T07:32:41.505Z,95156.03
2023-05-08T07:35:11.517Z,95153.44
2023-05-08T07:37:41.735Z,95155.97
2023-05-08T07:40:09.159Z,95151.00
2023-05-08T07:42:43.313Z,95158.91
2023-05-08T07:45:12.313Z,95158.22
2023-05-08T07:47:48.355Z,95167.31
2023-05-08T07:50:15.730Z,95151.06
2023-05-08T07:52:42.690Z,95163.09
2023-05-08T07:55:09.867Z,95166.31
2023-05-08T07:57:41.093Z,95158.22
2023-05-08T08:00:09.730Z,95167.19
2023-05-08T08:02:44.544Z,95173.78
2023-05-08T08:05:12.460Z,95167.88
2023-05-08T08:07:39.922Z,95170.22
2023-05-08T08:10:07.964Z,95171.59
2023-05-08T08:12:35.192Z,95173.72
2023-05-08T08:15:02.304Z,95169.47
2023-05-08T08:17:32.491Z,95171.53
2023-05-08T08:20:00.096Z,95165.88
2023-05-08T08:22:27.166Z,95168.69
2023-05-08T08:24:57.178Z,95169.41
2023-05-08T08:27:24.178Z,95168.41
2023-05-08T08:29:58.515Z,95162.75
2023-05-08T08:32:32.494Z,95162.38
2023-05-08T08:34:59.497Z,95159.78
2023-05-08T08:37:26.507Z,95156.50
2023-05-08T08:39:53.849Z,95150.25
2023-05-08T08:42:20.824Z,95144.78
2023-05-08T08:44:47.678Z,95145.03
2023-05-08T08:47:16.682Z,95147.34
2023-05-08T08:49:47.772Z,95141.09
2023-05-08T08:52:30.864Z,95138.72
2023-05-08T08:55:00.605Z,95131.31
2023-05-08T08:57:32.928Z,95099.56
2023-05-08T09:00:03.985Z,95122.94
2023-05-08T09:02:35.272Z,95117.59
2023-05-08T09:05:03.478Z,95117.84
2023-05-08T09:07:33.273Z,95111.91
2023-05-08T09:10:00.696Z,95097.81
2023-05-08T09:12:27.632Z,95106.22
2023-05-08T09:14:54.861Z,95090.97
2023-05-08T09:17:22.752Z,95106.81
2023-05-08T09:19:49.927Z,95086.91
2023-05-08T09:22:17.860Z,95067.81
2023-05-08T09:24:55.013Z,95071.94
2023-05-08T09:27:23.618Z,95081.00
2023-05-08T09:30:05.167Z,95056.25
2023-05-08T09:32:36.743Z,95051.53
2023-05-08T09:35:05.719Z,95063.31
2023-05-08T09:37:34.055Z,95077.16
2023-05-08T09:40:21.932Z,95076.97
2023-05-08T09:42:50.893Z,95079.69
2023-05-08T09:45:29.687Z,95097.78
2023-05-08T09:47:57.027Z,95087.47
2023-05-08T09:50:25.252Z,95105.03
2023-05-08T09:52:52.522Z,95106.31
2023-05-08T09:55:20.146Z,95088.09
2023-05-08T09:58:00.119Z,95083.66
2023-05-08T10:00:28.872Z,95094.91
2023-05-08T10:03:01.708Z,95090.94
2023-05-08T10:05:34.844Z,95091.56
2023-05-08T10:08:19.828Z,95086.38
2023-05-08T10:10:47.386Z,95087.38
2023-05-08T10:13:14.849Z,95075.13
2023-05-08T10:15:43.088Z,95072.75
2023-05-08T10:18:12.101Z,95071.84
2023-05-08T10:20:41.485Z,95071.19
2023-05-08T10:23:14.516Z,95072.31
2023-05-08T10:25:54.790Z,95080.94
2023-05-08T10:28:49.224Z,95068.56
2023-05-08T10:31:18.368Z,95065.22
2023-05-08T10:33:46.612Z,95067.09
2023-05-08T10:36:15.052Z,95062.63
2023-05-08T10:38:43.360Z,95064.78
2023-05-08T10:41:14.043Z,95062.25
2023-05-08T10:43:44.062Z,95049.91
2023-05-08T10:46:47.468Z,95054.91
2023-05-08T10:49:28.033Z,95051.41
2023-05-08T10:52:09.737Z,95047.69
2023-05-08T10:54:39.824Z,95043.41
2023-05-08T10:57:09.596Z,95050.34
2023-05-08T10:59:39.815Z,95040.69
2023-05-08T11:02:08.509Z,95039.56
2023-05-08T11:04:35.766Z,95027.63
2023-05-08T11:07:04.482Z,95033.84
2023-05-08T11:09:47.156Z,95036.63
2023-05-08T11:12:26.557Z,95019.28
2023-05-08T11:14:58.849Z,95015.81
2023-05-08T11:17:26.538Z,95007.00
2023-05-08T11:19:59.326Z,95012.44
2023-05-08T11:22:32.653Z,95004.13
2023-05-08T11:25:06.251Z,95003.00
2023-05-08T11:27:49.713Z,94996.47
2023-05-08T11:30:34.796Z,94995.97
2023-05-08T11:33:05.359Z,94986.38
2023-05-08T11:35:45.657Z,94984.78
2023-05-08T11:38:29.168Z,94984.63
2023-05-08T11:41:05.060Z,94973.25
2023-05-08T11:43:32.130Z,94967.03
2023-05-08T11:46:15.481Z,94964.94
2023-05-08T11:48:43.241Z,94965.09
2023-05-08T11:51:10.454Z,94956.41
2023-05-08T11:53:37.979Z,94948.56
2023-05-08T11:56:05.502Z,94952.91
2023-05-08T11:58:32.513Z,94947.44
2023-05-08T12:00:59.597Z,94941.81
2023-05-08T12:03:26.814Z,94931.56
2023-05-08T12:05:58.724Z,94930.06
2023-05-08T12:08:26.236Z,94937.72
2023-05-08T12:10:55.013Z,94940.84
2023-05-08T12:13:24.274Z,94932.00
2023-05-08T12:15:55.348Z,94940.03
2023-05-08T12:18:23.871Z,94943.06
2023-05-08T12:20:58.248Z,94949.31
2023-05-08T12:23:26.395Z,94936.59
2023-05-08T12:25:55.403Z,94919.00
2023-05-08T12:28:22.890Z,94937.94
2023-05-08T12:30:50.455Z,94929.47
2023-05-08T12:33:18.995Z,94916.38
2023-05-08T12:35:46.320Z,94926.09
2023-05-08T12:38:13.614Z,94925.47
2023-05-08T12:40:45.678Z,94932.22
2023-05-08T12:43:12.798Z,94917.81
2023-05-08T12:45:41.405Z,94930.59
2023-05-08T12:48:11.102Z,94928.31
2023-05-08T12:50:42.947Z,94933.94
2023-05-08T12:53:16.667Z,94927.75
2023-05-08T12:55:54.896Z,94933.84
2023-05-08T12:58:26.463Z,94915.00
2023-05-08T13:00:54.931Z,94909.47
2023-05-08T13:03:27.073Z,94913.16
2023-05-08T13:05:55.854Z,94932.19
2023-05-08T13:08:33.222Z,94931.78
2023-05-08T13:11:01.343Z,94939.34
2023-05-08T13:13:31.076Z,94932.63
2023-05-08T13:16:02.285Z,94944.03
2023-05-08T13:18:29.319Z,94948.41
2023-05-08T13:20:56.513Z,94939.00
2023-05-08T13:23:23.941Z,94938.72
2023-05-08T13:25:51.412Z,94934.75
2023-05-08T13:28:18.366Z,94964.00
2023-05-08T13:30:45.376Z,94960.09
2023-05-08T13:33:12.503Z,94956.50
2023-05-08T13:35:39.772Z,94966.84
2023-05-08T13:38:06.715Z,94972.84
2023-05-08T13:40:33.750Z,94985.25
2023-05-08T13:43:00.678Z,94977.50
2023-05-08T13:45:27.811Z,94977.31
2023-05-08T13:47:55.049Z,94989.91
2023-05-08T13:50:22.952Z,94980.88
2023-05-08T13:52:51.690Z,94998.09
2023-05-08T13:55:22.803Z,94991.03
2023-05-08T13:57:50.709Z,95005.53
2023-05-08T14:00:18.319Z,95006.50
2023-05-08T14:02:45.629Z,95005.50
2023-05-08T14:05:12.955Z,95016.34
2023-05-08T14:07:40.203Z,95015.38
2023-05-08T14:10:07.323Z,95019.19
2023-05-08T14:12:38.228Z,95028.31
2023-05-08T14:15:05.866Z,95022.34
2023-05-08T14:17:35.421Z,95026.44
2023-05-08T14:20:03.744Z,95026.25
2023-05-08T14:22:34.546Z,95046.25
2023-05-08T14:25:01.554Z,95047.94
2023-05-08T14:27:28.833Z,95053.41
2023-05-08T14:29:55.749Z,95055.59
2023-05-08T14:32:22.665Z,95062.75
2023-05-08T14:34:49.610Z,95063.44
2023-05-08T14:37:17.726Z,95068.84
2023-05-08T14:39:45.552Z,95071.50
2023-05-08T14:44:42.423Z,95078.84
2023-05-08T14:47:09.529Z,95074.53
2023-05-08T14:49:38.527Z,95083.19
2023-05-08T14:52:07.398Z,95089.25
2023-05-08T14:54:34.770Z,95090.63
2023-05-08T14:57:01.919Z,95080.16
2023-05-08T14:59:29.072Z,95095.72
2023-05-08T15:01:55.971Z,95090.47
2023-05-08T15:04:23.136Z,95101.44
2023-05-08T15:06:50.215Z,95105.53
2023-05-08T15:09:17.187Z,95108.84
2023-05-08T15:11:44.691Z,95107.94
2023-05-08T15:14:11.644Z,95112.91
2023-05-08T15:16:38.670Z,95105.16
2023-05-08T15:19:05.681Z,95051.09
2023-05-08T15:21:32.666Z,95117.88
2023-05-08T15:23:59.685Z,95105.72
2023-05-08T15:26:26.710Z,95116.56
2023-05-08T15:28:53.552Z,95119.41
2023-05-08T15:31:21.157Z,95124.41
2023-05-08T15:33:48.418Z,95121.16
2023-05-08T15:36:15.837Z,95127.25
2023-05-08T15:38:43.073Z,95128.16
2023-05-08T15:41:14.597Z,95128.22
2023-05-08T15:43:43.235Z,95111.78
2023-05-08T15:46:10.376Z,95129.53
2023-05-08T15:48:37.495Z,95126.84
2023-05-08T15:51:04.368Z,95138.41
2023-05-08T15:53:32.800Z,95117.50
2023-05-08T15:55:59.744Z,95127.97
2023-05-08T15:58:27.630Z,95132.03
2023-05-08T16:00:54.828Z,95133.66
2023-05-08T16:03:22.120Z,95137.09
2023-05-08T16:05:49.372Z,95141.13
2023-05-08T16:08:16.404Z,95129.88
2023-05-08T16:10:43.382Z,95121.53
2023-05-08T16:13:10.455Z,95138.47
2023-05-08T16:15:37.394Z,95140.59
2023-05-08T16:18:06.339Z,95136.06
2023-05-08T16:20:35.737Z,95146.25
2023-05-08T16:23:03.315Z,95144.63
2023-05-08T16:25:30.254Z,95145.41
2023-05-08T16:27:57.198Z,95141.38
2023-05-08T16:30:24.152Z,95139.22
2023-05-08T16:32:51.203Z,95141.63
2023-05-08T16:35:19.581Z,95141.31
2023-05-08T16:37:46.778Z,95116.66
2023-05-08T16:40:13.764Z,95149.47
2023-05-08T16:42:40.803Z,95155.66
2023-05-08T16:45:08.533Z,95142.75
2023-05-08T16:47:35.994Z,95157.78
2023-05-08T16:50:04.633Z,95154.28
2023-05-08T16:52:33.028Z,95150.81
2023-05-08T16:55:00.350Z,95166.69
2023-05-08T16:57:28.008Z,95168.34
2023-05-08T16:59:54.983Z,95172.59
2023-05-08T17:02:22.553Z,95128.25
2023-05-08T17:04:50.512Z,95169.91
2023-05-08T17:07:17.994Z,95154.56
2023-05-08T17:09:45.691Z,95163.22
2023-05-08T17:12:12.655Z,95176.38
2023-05-08T17:14:40.697Z,95167.78
2023-05-08T17:17:08.039Z,95162.94
2023-05-08T17:19:35.124Z,95176.97
2023-05-08T17:22:02.596Z,95183.94
2023-05-08T17:24:30.768Z,95187.94
2023-05-08T17:26:57.972Z,95189.56
2023-05-08T17:29:25.226Z,95171.53
2023-05-08T17:31:52.108Z,95197.88
2023-05-08T17:34:19.145Z,95196.25
2023-05-08T17:36:46.149Z,95203.00
2023-05-08T17:39:13.212Z,95200.31
2023-05-08T17:41:40.205Z,95215.84
2023-05-08T17:44:07.199Z,95210.19
2023-05-08T17:46:35.004Z,95220.69
2023-05-08T17:49:02.311Z,95213.66
2023-05-08T17:51:29.318Z,95169.81
2023-05-08T17:53:56.691Z,95198.09
2023-05-08T17:56:23.968Z,95214.19
2023-05-08T17:58:55.600Z,95216.06
2023-05-08T18:01:22.802Z,95216.31
2023-05-08T18:03:49.857Z,95230.84
2023-05-08T18:06:18.114Z,95229.97
2023-05-08T18:08:45.976Z,95228.34
2023-05-08T18:11:31.056Z,95232.88
2023-05-08T18:13:58.013Z,95240.13
2023-05-08T18:16:24.871Z,95239.34
2023-05-08T18:18:52.065Z,95230.72
2023-05-08T18:21:19.151Z,95225.13
2023-05-08T18:23:46.107Z,95236.75
2023-05-08T18:26:14.746Z,95225.97
2023-05-08T18:28:41.692Z,95253.16
2023-05-08T18:31:08.684Z,95257.97
2023-05-08T18:33:37.041Z,95250.75
2023-05-08T18:36:05.568Z,95263.38
2023-05-08T18:38:33.920Z,95267.47
2023-05-08T18:41:05.211Z,95265.31
2023-05-08T18:43:32.272Z,95269.28
2023-05-08T18:46:00.571Z,95275.00
2023-05-08T18:48:27.902Z,95271.03
2023-05-08T18:50:58.612Z,95266.13
2023-05-08T18:53:26.058Z,95277.91
2023-05-08T18:55:53.002Z,95281.06
2023-05-08T18:58:20.072Z,95278.34
2023-05-08T19:00:47.000Z,95275.72
2023-05-08T19:03:14.462Z,95281.69
2023-05-08T19:05:42.193Z,95278.47
2023-05-08T19:08:09.358Z,95265.00
2023-05-08T19:10:36.300Z,95272.25
2023-05-08T19:13:03.374Z,95280.28
2023-05-08T19:15:30.435Z,95279.75
2023-05-08T19:17:57.461Z,95284.91
2023-05-08T19:20:24.530Z,95268.81
2023-05-08T19:22:51.756Z,95281.16
2023-05-08T19:25:18.776Z,95294.91
2023-05-08T19:27:47.001Z,95289.28
2023-05-08T19:30:14.727Z,95291.97
2023-05-08T19:32:41.696Z,95288.75
2023-05-08T19:35:09.718Z,95297.31
2023-05-08T19:37:37.977Z,95290.28
2023-05-08T19:40:06.429Z,95305.38
2023-05-08T19:42:33.605Z,95308.91
2023-05-08T19:45:01.363Z,95301.91
2023-05-08T19:47:32.270Z,95307.50
2023-05-08T19:49:59.192Z,95301.63
2023-05-08T19:52:26.317Z,95311.72
2023-05-08T19:54:53.257Z,95306.59
2023-05-08T19:57:20.220Z,95304.41
2023-05-08T19:59:47.070Z,95309.50
2023-05-08T20:02:14.143Z,95312.66
2023-05-08T20:07:11.279Z,95307.53
2023-05-08T20:09:38.555Z,95305.88
2023-05-08T20:12:06.170Z,95314.69
2023-05-08T20:14:33.140Z,95317.91
2023-05-08T20:17:00.293Z,95316.31
2023-05-08T20:19:27.182Z,95318.22
2023-05-08T20:21:54.185Z,95311.81
2023-05-08T20:24:21.053Z,95303.22
2023-05-08T20:26:48.410Z,95317.72
2023-05-08T20:29:15.308Z,95305.94
2023-05-08T20:31:42.332Z,95316.34
2023-05-08T20:34:09.225Z,95308.19
2023-05-08T20:36:36.111Z,95319.19
2023-05-08T20:39:03.190Z,95311.84
2023-05-08T20:41:30.161Z,95301.66
2023-05-08T20:43:57.020Z,95302.38
2023-05-08T20:46:24.080Z,95301.13
2023-05-08T20:48:51.290Z,95304.63
2023-05-08T20:51:18.355Z,95303.78
2023-05-08T20:53:45.305Z,95297.31
2023-05-08T20:56:15.776Z,95300.81
2023-05-08T20:58:44.344Z,95298.44
2023-05-08T21:01:11.454Z,95299.88
2023-05-08T21:03:38.784Z,95297.03
2023-05-08T21:06:05.908Z,95299.19
2023-05-08T21:08:32.964Z,95292.19
2023-05-08T21:11:01.029Z,95292.22
2023-05-08T21:13:28.110Z,95296.19
2023-05-08T21:15:55.328Z,95280.97
2023-05-08T21:18:22.282Z,95280.97
2023-05-08T21:20:52.143Z,95286.28
2023-05-08T21:23:20.179Z,95280.69
2023-05-08T21:25:50.693Z,95283.47
2023-05-08T21:28:17.742Z,95279.69
2023-05-08T21:30:45.344Z,95269.34
2023-05-08T21:33:13.969Z,95287.16
2023-05-08T21:35:42.146Z,95286.81
2023-05-08T21:38:11.994Z,95296.69
2023-05-08T21:40:39.530Z,95287.28
2023-05-08T21:43:06.470Z,95282.25
2023-05-08T21:45:33.494Z,95293.81
2023-05-08T21:48:01.049Z,95290.91
2023-05-08T21:50:31.074Z,95294.53
2023-05-08T21:52:57.993Z,95283.22
2023-05-08T21:55:25.347Z,95287.25
2023-05-08T21:57:53.793Z,95285.66
2023-05-08T22:00:21.100Z,95290.22
2023-05-08T22:02:48.471Z,95286.84
2023-05-08T22:05:15.753Z,95289.78
2023-05-08T22:07:42.865Z,95283.34
2023-05-08T22:10:11.664Z,95298.81
2023-05-08T22:12:38.661Z,95288.78
2023-05-08T22:15:12.083Z,95278.25
2023-05-08T22:17:50.638Z,95291.19
2023-05-08T22:20:18.222Z,95285.59
2023-05-08T22:22:45.342Z,95286.09
2023-05-08T22:25:12.468Z,95288.22
2023-05-08T22:27:39.621Z,95281.22
2023-05-08T22:30:07.401Z,95284.34
2023-05-08T22:32:35.131Z,95283.28
2023-05-08T22:35:02.784Z,95287.09
2023-05-08T22:37:31.125Z,95281.81
2023-05-08T22:39:58.146Z,95294.44
2023-05-08T22:42:25.499Z,95290.94
2023-05-08T22:44:52.656Z,95296.06
2023-05-08T22:47:19.678Z,95289.81
2023-05-08T22:49:47.994Z,95288.25
2023-05-08T22:52:14.956Z,95283.47
2023-05-08T22:54:41.937Z,95271.56
2023-05-08T22:57:08.988Z,95287.19
2023-05-08T22:59:36.452Z,95292.38
2023-05-08T23:02:03.494Z,95289.53
2023-05-08T23:04:30.382Z,95286.50
2023-05-08T23:06:57.379Z,95283.03
2023-05-08T23:09:24.224Z,95290.59
2023-05-08T23:11:51.432Z,95268.25
2023-05-08T23:14:18.289Z,95277.13
2023-05-08T23:16:45.161Z,95285.69
2023-05-08T23:19:12.065Z,95292.28
2023-05-08T23:21:39.155Z,95290.94
2023-05-08T23:24:06.414Z,95297.34
2023-05-08T23:26:33.451Z,95284.50
2023-05-08T23:29:01.368Z,95280.72
2023-05-08T23:31:28.701Z,95291.75
2023-05-08T23:33:55.903Z,95279.00
2023-05-08T23:36:22.902Z,95276.22
2023-05-08T23:38:49.816Z,95279.72
2023-05-08T23:41:17.483Z,95250.22
2023-05-08T23:43:44.435Z,95277.66
2023-05-08T23:46:11.646Z,95274.88
2023-05-08T23:48:38.597Z,95265.38
2023-05-08T23:51:05.588Z,95277.50
2023-05-08T23:53:32.559Z,95267.13
2023-05-08T23:55:59.539Z,95271.13
2023-05-08T23:58:26.354Z,95259.75
